默认 日期 大小 文件数 浏览量 最新下载 xml
tribute磁力链接相关资源由用户搜索指令自动获取,结果来源于网络,本站不存储任何资料,亦不承担任何责任,请于24小时内删除,搜索到8258个磁力,显示前4000条数据,用时4ms。
    ... }, ".InstallationAttributes.dat": 205}, "Bob Moog Tribute Patch Library Update v1.4e ... ": {"Settings Library": {"Patches": {"Factory": {"Moog Tribute Library.db": 22595169}}}}}, "Windows": {"Bob ...
创建时间: 2019-03-30 21:22:54 大小:1.54 GB 文件数量:28 热度:13 最近下载:2024-12-05 10:55:02
    {"15. Steril - Animal.mp3": 11244588, "01. Tolchock - U-Men.mp3": 10435837, "11. AD-KEY - Work 242.mp3": 8924916, "02. Kapital - Kinetics.mp3": 6364916, "03. Sharon Next - GVDT.mp3": 7109928, "14. Vuduvox - Headhunter.mp3": 8113033, "05. System 84 - No ...
创建时间: 2019-03-30 22:52:20 大小:143.51 MB 文件数量:16 热度:5 最近下载:2021-06-17 16:25:58
    {"14 - Exodus.mp3": 18474239, "07 - Is This Love.mp3": 9918624, "12 - Natural Mystic.mp3": 10198659, "01 - Get Up Stand Up.mp3": 10518396, "02 - Buffalo Soldier.mp3": 10702308, "05 - Waiting In Vain.mp3": 12260247, "08 - Redemption Song.mp3": 9534100, "15 ...
创建时间: 2019-03-31 00:28:35 大小:156.61 MB 文件数量:15 热度:9 最近下载:2025-08-01 19:18:11
    {"Bob_Moog_Tribute_Library_Update_1_4_0c.rar": 1037732, "Torrent_downloaded_from_Demonoid_-_www.demonoid.pw_.txt": 59}
创建时间: 2019-03-31 04:09:53 大小:1013.47 KB 文件数量:2 热度:7 最近下载:2025-02-04 07:12:02
    {"Scans": {"CD.jpg": 196397, "Back.jpg": 235111, "Inlay.jpg": 254472, "CD Matrix.jpg": 158684, "Booklet 01.jpg": 231516, "Booklet 02.jpg": 243129}, "08. Killers.mp3": 11831168, "07. Aces High.mp3": 10692480, "06. Powerslave.mp3": 16545664, "02. Iron Maiden ...
创建时间: 2019-03-31 07:50:43 大小:114.34 MB 文件数量:17 热度:8 最近下载:2025-02-16 16:20:01
    {"1 She.mp3": 11676733, "7 Juanita.mp3": 6484635, "3 Sin City.mp3": 9638137, "12 Hickory Wind.mp3": 11185631, "2 Ooh Las Vegas.mp3": 12848064, "5 Hot Burrito #1.mp3": 9372733, "11 A Song For You.mp3": 16028733, "4 $1,000 Wedding.mp3": 7498186, "8 ...
创建时间: 2019-03-31 19:05:34 大小:124.4 MB 文件数量:14 热度:9 最近下载:2025-07-30 10:20:05
    ... .txt": 528, "Duke Ellington - A Tribute to Duke Ellington.cue": 1446 ... , "Duke Ellington - A Tribute to Duke Ellington.log": 7130 ... , "Duke Ellington - A Tribute to Duke Ellington.flac": 233902718}
创建时间: 2019-03-31 21:12:12 大小:286.31 MB 文件数量:9 热度:5 最近下载:2022-04-13 06:48:32
    ... Of The Mountain King - A Tribute To Savatage - cd.jpg": 1312942 ... Of The Mountain King - A Tribute To Savatage - matrix.jpg": 119755 ... Of The Mountain King - A Tribute To Savatage - digi-front.jpg ... Of The Mountain King - A Tribute To Savatage - digi-inside.jpg ...
创建时间: 2019-03-31 21:50:33 大小:171.92 MB 文件数量:22 热度:7 最近下载:2022-04-13 07:05:30
    ... Thy Stethoscope.mp3": 1483319, "Reggae Tribute to Pink Floyd.JPG": 40529 ...
创建时间: 2019-03-31 23:58:53 大小:25.85 MB 文件数量:11 热度:4 最近下载:2021-06-17 16:25:58
    {"Front.jpg": 192871, "10 Peter Lang - Poor Boy.mp3": 7178319, "03 Woody Mann - Spanish Nights.mp3": 10872038, "02 Tinh - I Remember John Fahey.mp3": 6376876, "09 Tinh - Home - Auld Lang Syne.mp3": 11953496, "08 Terry Robb - Fahey At Bush Park.mp3": ...
创建时间: 2019-04-01 12:57:08 大小:156.38 MB 文件数量:16 热度:6 最近下载:2022-04-13 06:45:03
    {"VIDEO_TS": {"VIDEO_TS.BUP": 12288, "VIDEO_TS.IFO": 12288, "VIDEO_TS.VOB": 219136, "VTS_01_0.BUP": 49152, "VTS_01_0.IFO": 49152, "VTS_01_0.VOB": 104448, "VTS_01_1.VOB": 1073739776, "VTS_01_2.VOB": 1073739776, "VTS_01_3.VOB": 1073739776, "VTS_01_4.VOB": ...
创建时间: 2019-04-01 16:52:55 大小:3.11 GB 文件数量:15 热度:8 最近下载:2025-02-07 14:25:07
    {"arts": {"tribute 1.jpg": 382750, "tribute 2.jpg": 1765489, "tribute 3.jpg": 1606859, "tribute cd ... .jpg": 336082, "tribute fr.jpg": 183990, "tribute back ...
创建时间: 2019-04-01 18:41:37 大小:259.41 MB 文件数量:20 热度:4 最近下载:2021-06-17 16:25:58
    {"Tribute.2009.SWESUB.DVDRip.XviD-Pride86.CD01.avi": 734011392, "Tribute.2009.SWESUB.DVDRip.XviD-Pride86.CD02.avi": 733954048}
创建时间: 2019-04-01 20:43:57 大小:1.37 GB 文件数量:2 热度:6 最近下载:2022-04-13 07:15:29
    ... size.txt": 5, "Bob Moog Tribute Patch Library.pkg": 5221087}, "STEAM ... {"Settings Library": {"Patches": {"Factory": {"Moog Tribute Library.db": 22595169}}}}}, "Windows": {"Bob ... Moog Tribute Patch Library.exe": 321536}, " PLEASE ...
创建时间: 2019-04-01 22:49:04 大小:26.87 MB 文件数量:5 热度:8 最近下载:2022-04-13 07:07:33
    {"front.jpg": 58040, "04 Faithfully.mp3": 10710912, "01 Separate Ways.mp3": 13041536, "08 Stone In Love.mp3": 9596800, "12 Mother Father.mp3": 13311872, "02 Only The Young.mp3": 9682816, "05 Ask The Lonely.mp3": 9396096, "06 Who's Cryin' Now.mp3": 11374464 ...
创建时间: 2019-04-02 03:14:47 大小:116.69 MB 文件数量:13 热度:6 最近下载:2022-04-13 07:01:33
    {"info.log": 1520, "cover.jpg": 218400, "03 - T.N.T..flac": 22354192, "05 - The Jack.flac": 27104641, "ACT_9509-2_PFE.pdf": 858995, "Speed of Grace.cue": 2507, "02 - Live Wire.flac": 27319382, "08 - Connected.flac": 20729248, "07 - Hells Bells.flac": ...
创建时间: 2019-04-02 04:29:14 大小:264.64 MB 文件数量:18 热度:12 最近下载:2025-05-03 04:17:01
    {"10-Burn.mp3": 11137152, "03-Fireball.mp3": 7465088, "09-Speed King .mp3": 6082688, "01-Black Night .mp3": 7995520, "08-Stormbringer.mp3": 7069824, "05-Child In Time .mp3": 15106176, "07-Space Truckin' .mp3": 8431744, "06-Woman From Tokyo .mp3": 10463360, ...
创建时间: 2019-04-02 05:17:43 大小:86.19 MB 文件数量:10 热度:6 最近下载:2022-04-13 05:43:13
    ... 6768509, "Charley Pride - A Tribute To Jim Reeves - 12 - Missing ... 6252333, "Charley Pride - A Tribute To Jim Reeves - 15 - Adios ... 6761211, "Charley Pride - A Tribute To Jim Reeves - 07 - There ... 4971302, "Charley Pride - A Tribute To Jim Reeves - 13 - Welcome ...
创建时间: 2019-04-09 14:00:42 大小:85.28 MB 文件数量:16 热度:5 最近下载:2022-04-13 06:58:44
    {"11 - Tom Ball - Time.mp3": 6438922, "09 - David West - Lucifer Sam.mp3": 4941834, "06 - David West - Run Like Hell.mp3": 6152202, "01 - David West - See Emily Play.mp3": 5365770, "03 - David West - Astronomy Domine.mp3": 7555082, "12 - David West - ...
创建时间: 2019-04-09 17:41:43 大小:71.28 MB 文件数量:14 热度:4 最近下载:2021-06-17 16:25:58
    {"Chill Mode - A Tribute To Depeche Mode V": {"Cover. ... ).mp3": 10539084}, "Dance Mode_ A Tribute To Depeche Mode Vo": {"Cover ... .mp3": 7671209}, "Dance Mode_ A Tribute To Depeche Mode, V": {"Cover ...
创建时间: 2019-04-09 19:00:38 大小:541.55 MB 文件数量:69 热度:4 最近下载:2024-12-23 03:47:01